sensor_id;sensor_type;location;lat;lon;timestamp;temperature;humidity
59469;DHT22;45277;52.768;18.262;2023-08-17T00:00:16;19.80;62.10
59469;DHT22;45277;52.768;18.262;2023-08-17T00:02:09;19.70;63.10
59469;DHT22;45277;52.768;18.262;2023-08-17T00:03:40;19.70;61.70
59469;DHT22;45277;52.768;18.262;2023-08-17T00:05:11;19.70;63.80
59469;DHT22;45277;52.768;18.262;2023-08-17T00:06:43;19.60;64.50
59469;DHT22;45277;52.768;18.262;2023-08-17T00:08:14;19.60;65.60
59469;DHT22;45277;52.768;18.262;2023-08-17T00:09:46;19.60;64.80
59469;DHT22;45277;52.768;18.262;2023-08-17T00:11:18;19.60;64.00
59469;DHT22;45277;52.768;18.262;2023-08-17T00:12:50;19.60;65.50
59469;DHT22;45277;52.768;18.262;2023-08-17T00:14:21;19.60;67.90
59469;DHT22;45277;52.768;18.262;2023-08-17T00:15:53;19.60;68.90
59469;DHT22;45277;52.768;18.262;2023-08-17T00:17:24;19.60;65.80
59469;DHT22;45277;52.768;18.262;2023-08-17T00:18:56;19.60;65.70
59469;DHT22;45277;52.768;18.262;2023-08-17T00:20:27;19.60;66.80
59469;DHT22;45277;52.768;18.262;2023-08-17T00:21:58;19.50;65.60
59469;DHT22;45277;52.768;18.262;2023-08-17T00:23:30;19.60;65.80
59469;DHT22;45277;52.768;18.262;2023-08-17T00:25:02;19.50;64.50
59469;DHT22;45277;52.768;18.262;2023-08-17T00:26:35;19.50;61.70
59469;DHT22;45277;52.768;18.262;2023-08-17T00:28:07;19.50;63.30
59469;DHT22;45277;52.768;18.262;2023-08-17T00:29:38;19.50;64.40
59469;DHT22;45277;52.768;18.262;2023-08-17T00:31:09;19.50;62.60
59469;DHT22;45277;52.768;18.262;2023-08-17T00:32:41;19.50;65.40
59469;DHT22;45277;52.768;18.262;2023-08-17T00:34:12;19.50;64.30
59469;DHT22;45277;52.768;18.262;2023-08-17T00:35:44;19.50;64.60
59469;DHT22;45277;52.768;18.262;2023-08-17T00:37:17;19.50;67.80
59469;DHT22;45277;52.768;18.262;2023-08-17T00:38:48;19.40;66.10
59469;DHT22;45277;52.768;18.262;2023-08-17T00:40:19;19.40;66.30
59469;DHT22;45277;52.768;18.262;2023-08-17T00:41:51;19.50;63.90
59469;DHT22;45277;52.768;18.262;2023-08-17T00:43:23;19.50;63.50
59469;DHT22;45277;52.768;18.262;2023-08-17T00:44:54;19.50;67.20
59469;DHT22;45277;52.768;18.262;2023-08-17T00:46:26;19.40;66.70
59469;DHT22;45277;52.768;18.262;2023-08-17T00:47:58;19.40;65.00
59469;DHT22;45277;52.768;18.262;2023-08-17T00:49:30;19.40;66.70
59469;DHT22;45277;52.768;18.262;2023-08-17T00:51:02;19.40;67.10
59469;DHT22;45277;52.768;18.262;2023-08-17T00:52:34;19.40;66.80
59469;DHT22;45277;52.768;18.262;2023-08-17T00:54:06;19.40;67.30
59469;DHT22;45277;52.768;18.262;2023-08-17T00:55:38;19.40;67.80
59469;DHT22;45277;52.768;18.262;2023-08-17T00:57:09;19.40;64.30
59469;DHT22;45277;52.768;18.262;2023-08-17T00:58:42;19.40;63.90
59469;DHT22;45277;52.768;18.262;2023-08-17T01:00:14;19.40;67.40
59469;DHT22;45277;52.768;18.262;2023-08-17T01:01:46;19.40;65.70
59469;DHT22;45277;52.768;18.262;2023-08-17T01:03:19;19.40;63.10
59469;DHT22;45277;52.768;18.262;2023-08-17T01:04:53;19.40;65.80
59469;DHT22;45277;52.768;18.262;2023-08-17T01:06:24;19.40;64.00
59469;DHT22;45277;52.768;18.262;2023-08-17T01:07:56;19.30;68.30
59469;DHT22;45277;52.768;18.262;2023-08-17T01:09:28;19.30;66.60
59469;DHT22;45277;52.768;18.262;2023-08-17T01:14:37;19.20;69.80
59469;DHT22;45277;52.768;18.262;2023-08-17T01:16:13;19.20;68.50
59469;DHT22;45277;52.768;18.262;2023-08-17T01:17:56;19.20;69.50
59469;DHT22;45277;52.768;18.262;2023-08-17T01:19:29;19.20;68.60
59469;DHT22;45277;52.768;18.262;2023-08-17T01:21:02;19.20;71.00
59469;DHT22;45277;52.768;18.262;2023-08-17T01:22:37;19.20;71.80
59469;DHT22;45277;52.768;18.262;2023-08-17T01:24:11;19.30;68.30
59469;DHT22;45277;52.768;18.262;2023-08-17T01:25:43;19.30;66.40
59469;DHT22;45277;52.768;18.262;2023-08-17T01:27:14;19.40;65.20
59469;DHT22;45277;52.768;18.262;2023-08-17T01:28:46;19.40;65.60
59469;DHT22;45277;52.768;18.262;2023-08-17T01:30:19;19.40;72.80
59469;DHT22;45277;52.768;18.262;2023-08-17T01:32:10;19.40;74.50
59469;DHT22;45277;52.768;18.262;2023-08-17T01:33:48;19.30;77.40
59469;DHT22;45277;52.768;18.262;2023-08-17T01:35:58;19.20;81.80
59469;DHT22;45277;52.768;18.262;2023-08-17T01:37:38;19.20;85.60
59469;DHT22;45277;52.768;18.262;2023-08-17T01:39:10;19.20;88.10
59469;DHT22;45277;52.768;18.262;2023-08-17T01:40:42;19.20;84.30
59469;DHT22;45277;52.768;18.262;2023-08-17T01:42:14;19.20;86.80
59469;DHT22;45277;52.768;18.262;2023-08-17T01:43:46;19.20;88.40
59469;DHT22;45277;52.768;18.262;2023-08-17T01:45:18;19.20;89.90
59469;DHT22;45277;52.768;18.262;2023-08-17T01:46:50;19.10;91.40
59469;DHT22;45277;52.768;18.262;2023-08-17T01:48:21;19.10;92.00
59469;DHT22;45277;52.768;18.262;2023-08-17T01:49:53;19.10;89.80
59469;DHT22;45277;52.768;18.262;2023-08-17T01:51:24;19.20;90.30
59469;DHT22;45277;52.768;18.262;2023-08-17T01:52:56;19.10;91.40
59469;DHT22;45277;52.768;18.262;2023-08-17T01:54:27;19.20;90.20
59469;DHT22;45277;52.768;18.262;2023-08-17T01:55:58;19.10;91.70
59469;DHT22;45277;52.768;18.262;2023-08-17T01:57:30;19.20;90.20
59469;DHT22;45277;52.768;18.262;2023-08-17T01:59:01;19.20;90.30
59469;DHT22;45277;52.768;18.262;2023-08-17T02:00:33;19.10;91.80
59469;DHT22;45277;52.768;18.262;2023-08-17T02:02:04;19.10;92.20
59469;DHT22;45277;52.768;18.262;2023-08-17T02:03:35;19.10;91.20
59469;DHT22;45277;52.768;18.262;2023-08-17T02:05:07;19.10;91.70
59469;DHT22;45277;52.768;18.262;2023-08-17T02:06:39;19.10;91.60
59469;DHT22;45277;52.768;18.262;2023-08-17T02:08:10;19.20;90.60
59469;DHT22;45277;52.768;18.262;2023-08-17T02:09:41;19.20;91.50
59469;DHT22;45277;52.768;18.262;2023-08-17T02:11:13;19.10;94.00
59469;DHT22;45277;52.768;18.262;2023-08-17T02:12:44;19.10;93.00
59469;DHT22;45277;52.768;18.262;2023-08-17T02:14:15;19.10;95.50
59469;DHT22;45277;52.768;18.262;2023-08-17T02:15:47;19.00;95.10
59469;DHT22;45277;52.768;18.262;2023-08-17T02:17:19;19.00;96.00
59469;DHT22;45277;52.768;18.262;2023-08-17T02:18:52;19.00;95.90
59469;DHT22;45277;52.768;18.262;2023-08-17T02:20:23;19.00;96.40
59469;DHT22;45277;52.768;18.262;2023-08-17T02:21:55;19.00;97.00
59469;DHT22;45277;52.768;18.262;2023-08-17T02:23:26;19.00;97.50
59469;DHT22;45277;52.768;18.262;2023-08-17T02:24:57;19.00;96.90
59469;DHT22;45277;52.768;18.262;2023-08-17T02:26:30;19.00;98.60
59469;DHT22;45277;52.768;18.262;2023-08-17T02:28:02;19.00;97.60
59469;DHT22;45277;52.768;18.262;2023-08-17T02:29:34;19.00;99.10
59469;DHT22;45277;52.768;18.262;2023-08-17T02:31:06;19.00;99.10
59469;DHT22;45277;52.768;18.262;2023-08-17T02:32:37;19.00;99.30
59469;DHT22;45277;52.768;18.262;2023-08-17T02:34:08;19.00;99.40
59469;DHT22;45277;52.768;18.262;2023-08-17T02:35:40;19.00;99.90
59469;DHT22;45277;52.768;18.262;2023-08-17T02:37:12;19.00;99.90
59469;DHT22;45277;52.768;18.262;2023-08-17T02:38:43;19.00;99.90
59469;DHT22;45277;52.768;18.262;2023-08-17T02:40:15;19.00;99.90
59469;DHT22;45277;52.768;18.262;2023-08-17T02:41:46;19.00;99.90
59469;DHT22;45277;52.768;18.262;2023-08-17T02:43:20;18.90;99.90
59469;DHT22;45277;52.768;18.262;2023-08-17T02:44:51;18.90;99.90
59469;DHT22;45277;52.768;18.262;2023-08-17T02:46:23;19.00;99.90
59469;DHT22;45277;52.768;18.262;2023-08-17T02:47:54;19.00;99.90
59469;DHT22;45277;52.768;18.262;2023-08-17T02:49:25;19.00;99.90
59469;DHT22;45277;52.768;18.262;2023-08-17T02:50:57;19.10;99.30
59469;DHT22;45277;52.768;18.262;2023-08-17T02:52:28;19.10;99.60
59469;DHT22;45277;52.768;18.262;2023-08-17T02:53:59;19.10;99.40
59469;DHT22;45277;52.768;18.262;2023-08-17T02:55:31;19.00;99.90
59469;DHT22;45277;52.768;18.262;2023-08-17T02:57:02;19.00;99.90
59469;DHT22;45277;52.768;18.262;2023-08-17T02:58:34;19.00;99.90
59469;DHT22;45277;52.768;18.262;2023-08-17T03:00:05;19.00;99.90
59469;DHT22;45277;52.768;18.262;2023-08-17T03:01:37;19.00;99.90
59469;DHT22;45277;52.768;18.262;2023-08-17T03:03:09;19.00;99.90
59469;DHT22;45277;52.768;18.262;2023-08-17T03:04:40;19.00;99.90
59469;DHT22;45277;52.768;18.262;2023-08-17T03:06:12;19.00;99.90
59469;DHT22;45277;52.768;18.262;2023-08-17T03:07:43;19.00;99.90
59469;DHT22;45277;52.768;18.262;2023-08-17T03:09:14;19.00;99.90
59469;DHT22;45277;52.768;18.262;2023-08-17T03:10:46;18.90;99.90
59469;DHT22;45277;52.768;18.262;2023-08-17T03:12:18;18.90;99.90
59469;DHT22;45277;52.768;18.262;2023-08-17T03:13:49;18.90;99.90
59469;DHT22;45277;52.768;18.262;2023-08-17T03:15:21;19.00;99.90
59469;DHT22;45277;52.768;18.262;2023-08-17T03:16:52;18.90;99.90
59469;DHT22;45277;52.768;18.262;2023-08-17T03:18:24;19.00;99.90
59469;DHT22;45277;52.768;18.262;2023-08-17T03:19:55;18.90;99.90
59469;DHT22;45277;52.768;18.262;2023-08-17T03:21:30;19.00;99.90
59469;DHT22;45277;52.768;18.262;2023-08-17T03:23:01;18.90;99.90
59469;DHT22;45277;52.768;18.262;2023-08-17T03:24:33;18.90;99.90
59469;DHT22;45277;52.768;18.262;2023-08-17T03:26:04;18.80;99.90
59469;DHT22;45277;52.768;18.262;2023-08-17T03:27:36;18.80;99.90
59469;DHT22;45277;52.768;18.262;2023-08-17T03:29:07;18.80;99.90
59469;DHT22;45277;52.768;18.262;2023-08-17T03:30:41;18.70;99.90
59469;DHT22;45277;52.768;18.262;2023-08-17T03:32:12;18.70;99.90
59469;DHT22;45277;52.768;18.262;2023-08-17T03:33:43;18.60;99.90
59469;DHT22;45277;52.768;18.262;2023-08-17T03:35:15;18.60;99.90
59469;DHT22;45277;52.768;18.262;2023-08-17T03:36:46;18.60;99.90
59469;DHT22;45277;52.768;18.262;2023-08-17T03:38:17;18.50;99.90
59469;DHT22;45277;52.768;18.262;2023-08-17T03:39:49;18.50;99.90
59469;DHT22;45277;52.768;18.262;2023-08-17T03:41:21;18.50;99.90
59469;DHT22;45277;52.768;18.262;2023-08-17T03:42:54;18.50;99.90
59469;DHT22;45277;52.768;18.262;2023-08-17T03:44:26;18.40;99.90
59469;DHT22;45277;52.768;18.262;2023-08-17T03:45:57;18.50;99.90
59469;DHT22;45277;52.768;18.262;2023-08-17T03:47:28;18.50;99.90
59469;DHT22;45277;52.768;18.262;2023-08-17T03:49:00;18.50;99.90
59469;DHT22;45277;52.768;18.262;2023-08-17T03:50:31;18.60;99.90
59469;DHT22;45277;52.768;18.262;2023-08-17T03:52:02;18.60;99.90
59469;DHT22;45277;52.768;18.262;2023-08-17T03:53:34;18.60;99.90
59469;DHT22;45277;52.768;18.262;2023-08-17T03:55:06;18.60;99.90
59469;DHT22;45277;52.768;18.262;2023-08-17T03:56:38;18.60;99.90
59469;DHT22;45277;52.768;18.262;2023-08-17T03:58:10;18.60;99.90
59469;DHT22;45277;52.768;18.262;2023-08-17T03:59:41;18.60;99.90
59469;DHT22;45277;52.768;18.262;2023-08-17T04:01:12;18.70;99.90
59469;DHT22;45277;52.768;18.262;2023-08-17T04:02:45;18.70;99.90
59469;DHT22;45277;52.768;18.262;2023-08-17T04:04:16;18.70;99.90
59469;DHT22;45277;52.768;18.262;2023-08-17T04:05:47;18.80;99.90
59469;DHT22;45277;52.768;18.262;2023-08-17T04:07:23;18.80;99.90
59469;DHT22;45277;52.768;18.262;2023-08-17T04:08:54;18.90;99.90
59469;DHT22;45277;52.768;18.262;2023-08-17T04:10:25;18.90;99.90
59469;DHT22;45277;52.768;18.262;2023-08-17T04:11:57;18.90;99.90
59469;DHT22;45277;52.768;18.262;2023-08-17T04:13:28;18.90;99.90
59469;DHT22;45277;52.768;18.262;2023-08-17T04:14:59;18.90;99.90
59469;DHT22;45277;52.768;18.262;2023-08-17T04:16:32;18.90;99.90
59469;DHT22;45277;52.768;18.262;2023-08-17T04:18:03;18.80;99.90
59469;DHT22;45277;52.768;18.262;2023-08-17T04:19:34;18.80;99.90
59469;DHT22;45277;52.768;18.262;2023-08-17T04:21:06;18.80;99.90
59469;DHT22;45277;52.768;18.262;2023-08-17T04:22:37;18.80;99.90
59469;DHT22;45277;52.768;18.262;2023-08-17T04:24:08;18.80;99.90
59469;DHT22;45277;52.768;18.262;2023-08-17T04:25:40;18.90;99.90
59469;DHT22;45277;52.768;18.262;2023-08-17T04:27:11;18.80;99.90
59469;DHT22;45277;52.768;18.262;2023-08-17T04:28:44;18.80;99.90
59469;DHT22;45277;52.768;18.262;2023-08-17T04:30:16;18.80;99.90
59469;DHT22;45277;52.768;18.262;2023-08-17T04:31:47;18.80;99.90
59469;DHT22;45277;52.768;18.262;2023-08-17T04:33:19;18.80;99.90
59469;DHT22;45277;52.768;18.262;2023-08-17T04:34:50;18.80;99.90
59469;DHT22;45277;52.768;18.262;2023-08-17T04:36:22;18.80;99.90
59469;DHT22;45277;52.768;18.262;2023-08-17T04:37:53;18.80;99.90
59469;DHT22;45277;52.768;18.262;2023-08-17T04:39:24;18.80;99.90
59469;DHT22;45277;52.768;18.262;2023-08-17T04:40:56;18.80;99.90
59469;DHT22;45277;52.768;18.262;2023-08-17T04:42:27;18.70;99.90
59469;DHT22;45277;52.768;18.262;2023-08-17T04:43:58;18.70;99.90
59469;DHT22;45277;52.768;18.262;2023-08-17T04:45:30;18.80;99.90
59469;DHT22;45277;52.768;18.262;2023-08-17T04:47:01;18.80;99.90
59469;DHT22;45277;52.768;18.262;2023-08-17T04:48:33;18.80;99.90
59469;DHT22;45277;52.768;18.262;2023-08-17T04:50:05;18.80;99.90
59469;DHT22;45277;52.768;18.262;2023-08-17T04:51:37;18.70;99.90
59469;DHT22;45277;52.768;18.262;2023-08-17T04:53:08;18.80;99.90
59469;DHT22;45277;52.768;18.262;2023-08-17T04:54:40;18.80;99.90
59469;DHT22;45277;52.768;18.262;2023-08-17T04:56:11;18.80;99.90
59469;DHT22;45277;52.768;18.262;2023-08-17T04:57:42;18.80;99.90
59469;DHT22;45277;52.768;18.262;2023-08-17T04:59:14;18.90;99.90
59469;DHT22;45277;52.768;18.262;2023-08-17T05:00:45;18.90;99.90
59469;DHT22;45277;52.768;18.262;2023-08-17T05:02:17;18.90;99.90
59469;DHT22;45277;52.768;18.262;2023-08-17T05:03:48;18.90;99.90
59469;DHT22;45277;52.768;18.262;2023-08-17T05:05:20;18.90;99.90
59469;DHT22;45277;52.768;18.262;2023-08-17T05:06:52;18.90;99.90
59469;DHT22;45277;52.768;18.262;2023-08-17T05:08:23;19.00;99.90
59469;DHT22;45277;52.768;18.262;2023-08-17T05:09:55;19.00;99.90
59469;DHT22;45277;52.768;18.262;2023-08-17T05:11:26;19.00;99.90
59469;DHT22;45277;52.768;18.262;2023-08-17T05:12:58;19.00;99.90
59469;DHT22;45277;52.768;18.262;2023-08-17T05:14:29;19.10;99.90
59469;DHT22;45277;52.768;18.262;2023-08-17T05:16:01;19.10;99.90
59469;DHT22;45277;52.768;18.262;2023-08-17T05:17:32;19.20;99.90
59469;DHT22;45277;52.768;18.262;2023-08-17T05:19:03;19.20;99.90
59469;DHT22;45277;52.768;18.262;2023-08-17T05:20:35;19.40;99.90
59469;DHT22;45277;52.768;18.262;2023-08-17T05:22:11;19.40;99.90
59469;DHT22;45277;52.768;18.262;2023-08-17T05:23:42;19.40;99.90
59469;DHT22;45277;52.768;18.262;2023-08-17T05:25:14;19.50;99.90
59469;DHT22;45277;52.768;18.262;2023-08-17T05:26:45;19.50;99.90
59469;DHT22;45277;52.768;18.262;2023-08-17T05:28:17;19.50;99.90
59469;DHT22;45277;52.768;18.262;2023-08-17T05:29:48;19.50;99.90
59469;DHT22;45277;52.768;18.262;2023-08-17T05:31:20;19.70;99.90
59469;DHT22;45277;52.768;18.262;2023-08-17T05:32:51;19.80;99.90
59469;DHT22;45277;52.768;18.262;2023-08-17T05:34:23;19.80;99.90
59469;DHT22;45277;52.768;18.262;2023-08-17T05:35:54;19.90;99.90
59469;DHT22;45277;52.768;18.262;2023-08-17T05:37:26;20.00;99.90
59469;DHT22;45277;52.768;18.262;2023-08-17T05:38:57;20.00;99.90
59469;DHT22;45277;52.768;18.262;2023-08-17T05:40:32;20.10;99.90
59469;DHT22;45277;52.768;18.262;2023-08-17T05:42:04;20.20;99.90
59469;DHT22;45277;52.768;18.262;2023-08-17T05:43:35;20.30;99.90
59469;DHT22;45277;52.768;18.262;2023-08-17T05:45:07;20.30;99.90
59469;DHT22;45277;52.768;18.262;2023-08-17T05:46:38;20.30;97.20
59469;DHT22;45277;52.768;18.262;2023-08-17T05:48:10;20.20;99.50
59469;DHT22;45277;52.768;18.262;2023-08-17T05:49:41;20.20;99.90
59469;DHT22;45277;52.768;18.262;2023-08-17T05:51:13;20.20;99.90
59469;DHT22;45277;52.768;18.262;2023-08-17T05:52:44;20.20;98.90
59469;DHT22;45277;52.768;18.262;2023-08-17T05:54:16;20.20;98.80
59469;DHT22;45277;52.768;18.262;2023-08-17T05:55:47;20.20;99.30
59469;DHT22;45277;52.768;18.262;2023-08-17T05:57:19;20.30;99.00
59469;DHT22;45277;52.768;18.262;2023-08-17T05:58:50;20.30;97.90
59469;DHT22;45277;52.768;18.262;2023-08-17T06:00:21;20.40;98.80
59469;DHT22;45277;52.768;18.262;2023-08-17T06:01:53;20.40;99.90
59469;DHT22;45277;52.768;18.262;2023-08-17T06:03:24;20.50;98.60
59469;DHT22;45277;52.768;18.262;2023-08-17T06:04:55;20.60;99.90
59469;DHT22;45277;52.768;18.262;2023-08-17T06:06:27;20.60;96.30
59469;DHT22;45277;52.768;18.262;2023-08-17T06:07:59;20.60;96.00
59469;DHT22;45277;52.768;18.262;2023-08-17T06:09:30;20.60;96.30
59469;DHT22;45277;52.768;18.262;2023-08-17T06:11:02;20.70;99.60
59469;DHT22;45277;52.768;18.262;2023-08-17T06:12:33;20.70;94.60
59469;DHT22;45277;52.768;18.262;2023-08-17T06:14:04;20.70;95.70
59469;DHT22;45277;52.768;18.262;2023-08-17T06:15:37;20.70;93.90
59469;DHT22;45277;52.768;18.262;2023-08-17T06:17:08;20.80;93.90
59469;DHT22;45277;52.768;18.262;2023-08-17T06:18:39;20.80;93.50
59469;DHT22;45277;52.768;18.262;2023-08-17T06:20:12;20.80;93.40
59469;DHT22;45277;52.768;18.262;2023-08-17T06:21:44;20.90;92.90
59469;DHT22;45277;52.768;18.262;2023-08-17T06:23:15;21.00;92.50
59469;DHT22;45277;52.768;18.262;2023-08-17T06:24:47;20.90;93.10
59469;DHT22;45277;52.768;18.262;2023-08-17T06:26:18;20.80;96.10
59469;DHT22;45277;52.768;18.262;2023-08-17T06:27:49;20.90;98.60
59469;DHT22;45277;52.768;18.262;2023-08-17T06:29:21;21.00;96.40
59469;DHT22;45277;52.768;18.262;2023-08-17T06:30:54;21.10;93.90
59469;DHT22;45277;52.768;18.262;2023-08-17T06:32:25;21.10;94.20
59469;DHT22;45277;52.768;18.262;2023-08-17T06:33:57;21.10;94.70
59469;DHT22;45277;52.768;18.262;2023-08-17T06:35:28;21.00;97.80
59469;DHT22;45277;52.768;18.262;2023-08-17T06:37:02;21.20;97.60
59469;DHT22;45277;52.768;18.262;2023-08-17T06:38:34;21.20;95.60
59469;DHT22;45277;52.768;18.262;2023-08-17T06:40:07;21.20;92.50
59469;DHT22;45277;52.768;18.262;2023-08-17T06:41:40;21.30;96.50
59469;DHT22;45277;52.768;18.262;2023-08-17T06:43:11;21.30;94.80
59469;DHT22;45277;52.768;18.262;2023-08-17T06:44:42;21.40;91.90
59469;DHT22;45277;52.768;18.262;2023-08-17T06:46:14;21.40;94.70
59469;DHT22;45277;52.768;18.262;2023-08-17T06:47:46;21.10;99.10
59469;DHT22;45277;52.768;18.262;2023-08-17T06:49:19;21.10;99.90
59469;DHT22;45277;52.768;18.262;2023-08-17T06:50:51;21.20;95.40
59469;DHT22;45277;52.768;18.262;2023-08-17T06:52:23;21.40;95.30
59469;DHT22;45277;52.768;18.262;2023-08-17T06:53:54;21.50;94.80
59469;DHT22;45277;52.768;18.262;2023-08-17T06:55:26;21.30;97.50
59469;DHT22;45277;52.768;18.262;2023-08-17T06:56:58;21.50;93.60
59469;DHT22;45277;52.768;18.262;2023-08-17T06:58:30;21.50;94.60
59469;DHT22;45277;52.768;18.262;2023-08-17T07:00:03;21.40;98.80
59469;DHT22;45277;52.768;18.262;2023-08-17T07:01:39;21.40;99.60
59469;DHT22;45277;52.768;18.262;2023-08-17T07:03:10;21.60;97.40
59469;DHT22;45277;52.768;18.262;2023-08-17T07:04:42;21.80;92.60
59469;DHT22;45277;52.768;18.262;2023-08-17T07:06:14;21.80;93.10
59469;DHT22;45277;52.768;18.262;2023-08-17T07:07:52;21.70;93.00
59469;DHT22;45277;52.768;18.262;2023-08-17T07:09:23;21.80;91.60
59469;DHT22;45277;52.768;18.262;2023-08-17T07:10:55;21.90;92.50
59469;DHT22;45277;52.768;18.262;2023-08-17T07:12:27;21.90;93.00
59469;DHT22;45277;52.768;18.262;2023-08-17T07:14:02;21.90;95.30
59469;DHT22;45277;52.768;18.262;2023-08-17T07:15:34;22.00;94.80
59469;DHT22;45277;52.768;18.262;2023-08-17T07:17:06;22.10;92.70
59469;DHT22;45277;52.768;18.262;2023-08-17T07:18:38;22.20;87.90
59469;DHT22;45277;52.768;18.262;2023-08-17T07:20:15;22.30;89.30
59469;DHT22;45277;52.768;18.262;2023-08-17T07:21:46;22.30;85.70
59469;DHT22;45277;52.768;18.262;2023-08-17T07:23:18;22.20;86.30
59469;DHT22;45277;52.768;18.262;2023-08-17T07:24:50;22.20;85.80
59469;DHT22;45277;52.768;18.262;2023-08-17T07:26:23;22.10;89.40
59469;DHT22;45277;52.768;18.262;2023-08-17T07:27:55;22.30;85.40
59469;DHT22;45277;52.768;18.262;2023-08-17T07:29:27;22.20;92.30
59469;DHT22;45277;52.768;18.262;2023-08-17T07:30:59;22.10;93.90
59469;DHT22;45277;52.768;18.262;2023-08-17T07:32:31;22.30;90.30
59469;DHT22;45277;52.768;18.262;2023-08-17T07:34:06;22.30;87.00
59469;DHT22;45277;52.768;18.262;2023-08-17T07:35:38;22.40;88.60
59469;DHT22;45277;52.768;18.262;2023-08-17T07:37:10;22.40;86.40
59469;DHT22;45277;52.768;18.262;2023-08-17T07:38:42;22.50;92.20
59469;DHT22;45277;52.768;18.262;2023-08-17T07:40:13;22.50;87.90
59469;DHT22;45277;52.768;18.262;2023-08-17T07:41:45;22.60;93.70
59469;DHT22;45277;52.768;18.262;2023-08-17T07:43:17;22.50;94.30
59469;DHT22;45277;52.768;18.262;2023-08-17T07:44:49;22.50;92.10
59469;DHT22;45277;52.768;18.262;2023-08-17T07:46:20;22.50;91.50
59469;DHT22;45277;52.768;18.262;2023-08-17T07:47:52;22.50;89.30
59469;DHT22;45277;52.768;18.262;2023-08-17T07:49:23;22.80;80.60
59469;DHT22;45277;52.768;18.262;2023-08-17T07:50:55;22.80;91.00
59469;DHT22;45277;52.768;18.262;2023-08-17T07:52:27;22.80;90.00
59469;DHT22;45277;52.768;18.262;2023-08-17T07:53:59;22.90;81.80
59469;DHT22;45277;52.768;18.262;2023-08-17T07:55:31;23.10;70.40
59469;DHT22;45277;52.768;18.262;2023-08-17T07:57:03;23.00;74.30
59469;DHT22;45277;52.768;18.262;2023-08-17T07:58:35;23.00;73.90
59469;DHT22;45277;52.768;18.262;2023-08-17T08:00:07;23.10;79.50
59469;DHT22;45277;52.768;18.262;2023-08-17T08:01:39;23.10;69.40
59469;DHT22;45277;52.768;18.262;2023-08-17T08:03:11;23.00;75.10
59469;DHT22;45277;52.768;18.262;2023-08-17T08:04:43;22.90;73.80
59469;DHT22;45277;52.768;18.262;2023-08-17T08:06:15;22.60;83.50
59469;DHT22;45277;52.768;18.262;2023-08-17T08:07:47;22.40;86.50
59469;DHT22;45277;52.768;18.262;2023-08-17T08:09:18;22.20;91.60
59469;DHT22;45277;52.768;18.262;2023-08-17T08:10:50;22.20;92.70
59469;DHT22;45277;52.768;18.262;2023-08-17T08:12:21;22.30;91.60
59469;DHT22;45277;52.768;18.262;2023-08-17T08:13:53;22.30;93.00
59469;DHT22;45277;52.768;18.262;2023-08-17T08:15:25;22.50;90.10
59469;DHT22;45277;52.768;18.262;2023-08-17T08:16:57;22.70;85.90
59469;DHT22;45277;52.768;18.262;2023-08-17T08:18:29;22.90;83.80
59469;DHT22;45277;52.768;18.262;2023-08-17T08:20:01;23.10;85.70
59469;DHT22;45277;52.768;18.262;2023-08-17T08:21:35;23.20;82.90
59469;DHT22;45277;52.768;18.262;2023-08-17T08:23:06;23.60;74.20
59469;DHT22;45277;52.768;18.262;2023-08-17T08:24:42;23.60;73.00
59469;DHT22;45277;52.768;18.262;2023-08-17T08:26:13;23.60;65.90
59469;DHT22;45277;52.768;18.262;2023-08-17T08:27:45;23.20;76.80
59469;DHT22;45277;52.768;18.262;2023-08-17T08:29:17;23.00;82.70
59469;DHT22;45277;52.768;18.262;2023-08-17T08:30:48;23.00;90.70
59469;DHT22;45277;52.768;18.262;2023-08-17T08:32:20;22.90;90.50
59469;DHT22;45277;52.768;18.262;2023-08-17T08:33:52;22.90;92.30
59469;DHT22;45277;52.768;18.262;2023-08-17T08:35:24;22.70;93.70
59469;DHT22;45277;52.768;18.262;2023-08-17T08:36:55;22.80;94.40
59469;DHT22;45277;52.768;18.262;2023-08-17T08:38:27;22.90;95.20
59469;DHT22;45277;52.768;18.262;2023-08-17T08:40:00;23.20;80.80
59469;DHT22;45277;52.768;18.262;2023-08-17T08:41:32;23.30;79.70
59469;DHT22;45277;52.768;18.262;2023-08-17T08:43:09;23.60;68.40
59469;DHT22;45277;52.768;18.262;2023-08-17T08:44:41;23.60;74.40
59469;DHT22;45277;52.768;18.262;2023-08-17T08:46:14;23.40;81.50
59469;DHT22;45277;52.768;18.262;2023-08-17T08:47:47;23.30;88.10
59469;DHT22;45277;52.768;18.262;2023-08-17T08:49:20;23.40;85.70
59469;DHT22;45277;52.768;18.262;2023-08-17T08:50:55;23.70;76.60
59469;DHT22;45277;52.768;18.262;2023-08-17T08:52:40;23.90;62.60
59469;DHT22;45277;52.768;18.262;2023-08-17T08:54:14;24.20;59.30
59469;DHT22;45277;52.768;18.262;2023-08-17T08:55:55;24.40;53.90
59469;DHT22;45277;52.768;18.262;2023-08-17T08:57:29;24.40;66.90
59469;DHT22;45277;52.768;18.262;2023-08-17T08:59:04;24.40;64.90
59469;DHT22;45277;52.768;18.262;2023-08-17T09:00:35;24.70;61.10
59469;DHT22;45277;52.768;18.262;2023-08-17T09:02:08;25.20;50.00
59469;DHT22;45277;52.768;18.262;2023-08-17T09:03:41;25.40;29.80
59469;DHT22;45277;52.768;18.262;2023-08-17T09:05:13;25.30;30.40
59469;DHT22;45277;52.768;18.262;2023-08-17T09:06:46;25.20;39.60
59469;DHT22;45277;52.768;18.262;2023-08-17T09:08:24;25.10;49.00
59469;DHT22;45277;52.768;18.262;2023-08-17T09:09:56;25.10;43.80
59469;DHT22;45277;52.768;18.262;2023-08-17T09:11:29;25.50;33.20
59469;DHT22;45277;52.768;18.262;2023-08-17T09:13:01;25.70;28.80
59469;DHT22;45277;52.768;18.262;2023-08-17T09:14:33;25.90;28.80
59469;DHT22;45277;52.768;18.262;2023-08-17T09:16:05;25.90;23.20
59469;DHT22;45277;52.768;18.262;2023-08-17T09:17:37;25.80;22.90
59469;DHT22;45277;52.768;18.262;2023-08-17T09:19:09;26.00;20.20
59469;DHT22;45277;52.768;18.262;2023-08-17T09:20:46;26.00;22.00
59469;DHT22;45277;52.768;18.262;2023-08-17T09:22:25;26.00;23.30
59469;DHT22;45277;52.768;18.262;2023-08-17T09:23:57;25.80;28.20
59469;DHT22;45277;52.768;18.262;2023-08-17T09:25:29;25.80;35.60
59469;DHT22;45277;52.768;18.262;2023-08-17T09:27:03;26.10;22.10
59469;DHT22;45277;52.768;18.262;2023-08-17T09:28:38;26.50;20.90
59469;DHT22;45277;52.768;18.262;2023-08-17T09:30:11;26.60;18.60
59469;DHT22;45277;52.768;18.262;2023-08-17T09:31:43;26.40;23.20
59469;DHT22;45277;52.768;18.262;2023-08-17T09:33:15;26.60;17.20
59469;DHT22;45277;52.768;18.262;2023-08-17T09:34:49;26.60;18.70
59469;DHT22;45277;52.768;18.262;2023-08-17T09:36:22;26.80;21.10